Time;durP1;ratioP1;P1;durP2;ratioP2;P2;SDS_P1;SDS_P2;PMS_P1;PMS_P2;Temp;Humidity;BMP_temperature;BMP_pressure;BME280_temperature;BME280_humidity;BME280_pressure;Samples;Min_cycle;Max_cycle;Signal;HPM_P1;HPM_P2
2022/12/02 00:00:57;;;;;;;72.10;26.10;;;;;;;5.42;98.68;101462.84;8382678;28;20044;-51
2022/12/02 00:05:01;;;;;;;73.38;28.05;;;;;;;5.41;99.06;101453.97;8354279;28;20491;-49
2022/12/02 00:09:15;;;;;;;67.55;25.05;;;;;;;5.38;98.57;101467.53;8375593;28;20422;-51
2022/12/02 00:13:40;;;;;;;64.93;25.45;;;;;;;5.35;99.30;101462.34;8382665;28;20161;-50
2022/12/02 00:17:40;;;;;;;72.15;26.60;;;;;;;5.34;99.40;101455.25;8382054;28;20056;-50
2022/12/02 00:21:41;;;;;;;71.03;25.88;;;;;;;5.36;99.47;101458.72;8363852;28;20071;-50
2022/12/02 00:25:45;;;;;;;76.75;27.88;;;;;;;5.35;98.95;101451.63;8360164;28;20037;-49
2022/12/02 00:29:46;;;;;;;;;;;;;;;5.35;98.89;101453.44;8360692;28;20045;-50
2022/12/02 00:33:46;;;;;;;69.70;26.02;;;;;;;5.37;98.77;101438.13;8360247;28;19925;-52
2022/12/02 00:37:46;;;;;;;68.20;25.42;;;;;;;5.37;99.33;101446.19;8360328;28;20029;-49
2022/12/02 00:41:47;;;;;;;71.15;27.08;;;;;;;5.41;100.00;101434.31;8360291;28;20033;-50
2022/12/02 00:46:48;;;;;;;79.28;28.40;;;;;;;5.36;99.70;101431.03;8358078;28;20033;-49
2022/12/02 00:50:09;;;;;;;71.97;27.65;;;;;;;5.33;99.62;101436.56;8359753;28;20037;-50
2022/12/02 00:54:11;;;;;;;79.72;26.75;;;;;;;5.32;100.00;101437.50;8359532;28;20111;-50
2022/12/02 00:58:11;;;;;;;80.25;28.08;;;;;;;5.30;100.00;101437.59;8359625;28;20448;-50
2022/12/02 01:02:12;;;;;;;73.75;25.83;;;;;;;5.29;99.60;101425.16;8359375;28;20094;-49
2022/12/02 01:06:13;;;;;;;71.57;25.50;;;;;;;5.30;100.00;101420.63;8359180;28;20041;-49
2022/12/02 01:10:14;;;;;;;78.88;27.95;;;;;;;5.30;100.00;101428.69;8359477;28;20087;-49
2022/12/02 01:14:14;;;;;;;84.38;28.98;;;;;;;5.26;100.00;101425.31;8358945;28;20092;-54
2022/12/02 01:18:16;;;;;;;77.68;27.77;;;;;;;5.25;100.00;101422.72;8358902;28;20044;-50
2022/12/02 01:22:16;;;;;;;81.18;29.50;;;;;;;5.22;100.00;101412.19;8358840;28;20037;-50
2022/12/02 01:26:17;;;;;;;78.10;28.08;;;;;;;5.20;100.00;101416.75;8358048;28;20555;-49
2022/12/02 01:30:18;;;;;;;87.10;27.60;;;;;;;5.13;100.00;101418.03;8357624;28;20035;-50
2022/12/02 01:34:19;;;;;;;82.40;27.83;;;;;;;5.14;100.00;101425.13;8339151;28;20044;-50
2022/12/02 01:38:20;;;;;;;78.10;27.70;;;;;;;5.15;100.00;101421.47;8356379;28;20032;-50
2022/12/02 01:42:21;;;;;;;86.93;28.83;;;;;;;5.12;100.00;101419.00;8358183;28;20037;-49
2022/12/02 01:46:21;;;;;;;81.53;28.50;;;;;;;5.08;100.00;101410.25;8357534;28;20033;-51
2022/12/02 01:50:22;;;;;;;90.95;30.75;;;;;;;5.09;100.00;101411.13;8358046;28;20041;-49
2022/12/02 01:54:24;;;;;;;87.85;28.98;;;;;;;5.05;100.00;101409.53;8357589;28;20423;-51
2022/12/02 01:58:27;;;;;;;79.97;29.00;;;;;;;5.03;100.00;101414.16;8357547;28;20064;-50
2022/12/02 02:02:31;;;;;;;86.68;29.83;;;;;;;5.01;100.00;101408.00;8353770;28;20494;-49
2022/12/02 02:06:35;;;;;;;;;;;;;;;5.03;100.00;101417.66;8356566;28;20037;-53
2022/12/02 02:10:38;;;;;;;80.03;28.42;;;;;;;5.02;100.00;101415.06;8357180;28;20019;-50
2022/12/02 02:14:39;;;;;;;82.65;27.70;;;;;;;4.97;100.00;101407.28;8357031;28;20044;-50
2022/12/02 02:18:41;;;;;;;74.30;27.58;;;;;;;4.97;100.00;101411.81;8357111;28;20406;-49
2022/12/02 02:22:52;;;;;;;75.78;27.77;;;;;;;4.92;100.00;101409.38;8357050;28;20107;-49
2022/12/02 02:26:52;;;;;;;68.97;25.33;;;;;;;4.85;100.00;101415.97;8356688;28;20033;-51
2022/12/02 02:30:56;;;;;;;64.88;25.00;;;;;;;4.81;100.00;101411.75;8356658;28;20026;-52
2022/12/02 02:34:59;;;;;;;58.58;24.00;;;;;;;4.77;100.00;101409.31;8350795;28;20037;-50
2022/12/02 02:39:00;;;;;;;59.40;22.58;;;;;;;4.76;100.00;101391.53;8356846;28;20044;-49
2022/12/02 02:43:02;;;;;;;58.08;23.20;;;;;;;4.79;100.00;101397.56;8356084;28;20067;-49
2022/12/02 02:47:03;;;;;;;49.70;20.05;;;;;;;4.77;99.59;101393.25;8356833;28;20033;-49
2022/12/02 02:51:04;;;;;;;48.58;20.48;;;;;;;4.77;99.77;101377.16;8356706;28;20037;-49
2022/12/02 02:55:14;;;;;;;59.50;20.80;;;;;;;4.82;99.94;101369.78;8356151;28;20041;-50
2022/12/02 02:59:15;;;;;;;44.15;19.60;;;;;;;4.79;99.78;101368.09;8356872;28;20040;-49
2022/12/02 03:03:19;;;;;;;45.92;18.27;;;;;;;4.78;99.26;101368.19;8356307;28;20043;-49
2022/12/02 03:07:20;;;;;;;42.80;17.67;;;;;;;4.73;99.20;101370.25;8356241;28;20039;-52
2022/12/02 03:11:22;;;;;;;49.10;18.38;;;;;;;4.71;99.73;101361.44;8356158;28;20037;-51
2022/12/02 03:15:26;;;;;;;44.80;17.95;;;;;;;4.67;99.11;101359.88;8355606;28;20495;-51
2022/12/02 03:19:30;;;;;;;43.83;17.80;;;;;;;4.69;99.63;101356.16;8355791;28;20041;-49
2022/12/02 03:23:31;;;;;;;;;;;;;;;4.68;99.22;101358.91;8356282;28;20039;-49
2022/12/02 03:27:33;;;;;;;50.03;19.02;;;;;;;4.68;99.06;101354.44;8356043;28;20009;-53
2022/12/02 03:31:33;;;;;;;43.70;18.58;;;;;;;4.68;99.18;101354.44;8355893;28;20045;-49
2022/12/02 03:35:34;;;;;;;41.55;17.38;;;;;;;4.68;98.85;101357.13;8355838;28;20114;-50
2022/12/02 03:39:36;;;;;;;45.28;17.52;;;;;;;4.69;98.71;101353.47;8355859;28;20040;-50
2022/12/02 03:43:37;;;;;;;42.40;17.48;;;;;;;4.68;99.34;101351.75;8355939;28;20045;-49
2022/12/02 03:47:39;;;;;;;49.90;20.63;;;;;;;4.70;99.68;101343.66;8355861;28;20041;-47
2022/12/02 03:51:40;;;;;;;45.45;18.08;;;;;;;4.72;100.00;101344.41;8355129;28;20102;-47
2022/12/02 03:55:40;;;;;;;53.33;20.55;;;;;;;4.70;100.00;101333.78;8357819;28;20036;-48
2022/12/02 03:59:41;;;;;;;60.85;21.38;;;;;;;4.70;100.00;101330.25;8361670;28;20079;-47
2022/12/02 04:03:42;;;;;;;68.22;22.80;;;;;;;4.72;100.00;101320.31;8360974;28;20041;-47
2022/12/02 04:07:43;;;;;;;63.75;23.45;;;;;;;4.75;100.00;101314.78;8361407;28;20560;-47
2022/12/02 04:11:43;;;;;;;62.35;24.33;;;;;;;4.71;100.00;101315.91;8361241;28;20037;-48
2022/12/02 04:15:44;;;;;;;63.72;24.58;;;;;;;4.74;100.00;101303.22;8360047;28;20514;-47
2022/12/02 04:19:44;;;;;;;62.92;25.23;;;;;;;4.75;100.00;101299.59;8361013;28;20033;-47
2022/12/02 04:23:45;;;;;;;68.50;24.90;;;;;;;4.72;100.00;101298.88;8360664;28;20056;-48
2022/12/02 04:27:45;;;;;;;68.82;25.35;;;;;;;4.75;100.00;101298.72;8360485;28;20124;-47
2022/12/02 04:31:46;;;;;;;59.42;23.48;;;;;;;4.77;100.00;101299.50;8360413;28;20045;-49
2022/12/02 04:35:46;;;;;;;65.95;25.77;;;;;;;4.83;100.00;101296.47;8360406;28;20474;-47
2022/12/02 04:39:47;;;;;;;67.78;24.52;;;;;;;4.83;100.00;101301.84;8360621;28;20037;-48
2022/12/02 04:43:47;;;;;;;72.60;25.38;;;;;;;4.82;100.00;101294.75;8359858;28;20570;-47
2022/12/02 04:47:48;;;;;;;73.32;25.67;;;;;;;4.78;100.00;101303.91;8359971;28;20121;-48
2022/12/02 04:51:48;;;;;;;70.32;26.67;;;;;;;4.81;100.00;101306.41;8359798;28;20072;-47
2022/12/02 04:55:49;;;;;;;70.90;27.80;;;;;;;4.76;100.00;101290.59;8359468;28;20056;-47
2022/12/02 04:59:49;;;;;;;79.55;27.42;;;;;;;4.77;100.00;101286.97;8359607;28;20033;-47
2022/12/02 05:03:50;;;;;;;71.60;27.10;;;;;;;4.80;100.00;101296.66;8338514;28;20030;-48
2022/12/02 05:07:50;;;;;;;72.10;29.70;;;;;;;4.77;100.00;101296.81;8338136;28;20550;-47
2022/12/02 05:11:51;;;;;;;73.60;26.85;;;;;;;4.74;100.00;101288.97;8341347;28;20041;-51
2022/12/02 05:15:51;;;;;;;73.32;27.60;;;;;;;4.79;100.00;101289.56;8332752;28;20037;-47
2022/12/02 05:19:52;;;;;;;68.53;26.73;;;;;;;4.77;100.00;101286.09;8359058;28;20394;-47
2022/12/02 05:23:52;;;;;;;74.28;26.77;;;;;;;4.75;100.00;101274.59;8357946;28;20044;-47
2022/12/02 05:27:54;;;;;;;67.35;27.23;;;;;;;4.79;100.00;101273.50;8362012;28;20464;-49
2022/12/02 05:31:56;;;;;;;79.57;26.40;;;;;;;4.77;100.00;101267.34;8339387;28;20034;-48
2022/12/02 05:35:56;;;;;;;71.63;26.23;;;;;;;4.81;100.00;101261.75;8339418;28;20051;-47
2022/12/02 05:39:58;;;;;;;63.90;25.15;;;;;;;4.80;100.00;101272.53;8358255;28;20083;-48
2022/12/02 05:44:17;;;;;;;79.97;28.65;;;;;;;4.87;100.00;101266.75;8357841;28;20552;-47
2022/12/02 05:48:18;;;;;;;77.25;24.60;;;;;;;4.82;100.00;101267.97;8355119;28;20044;-48
2022/12/02 05:52:25;;;;;;;74.72;26.27;;;;;;;4.88;100.00;101267.63;8350893;28;20039;-47
2022/12/02 05:56:27;;;;;;;72.63;27.35;;;;;;;4.82;100.00;101267.97;8344414;28;20041;-47
2022/12/02 06:00:29;;;;;;;86.60;28.08;;;;;;;4.81;100.00;101266.22;8349701;28;20041;-48
2022/12/02 06:04:31;;;;;;;69.75;24.50;;;;;;;4.80;100.00;101267.19;8331018;28;20029;-47
2022/12/02 06:08:33;;;;;;;80.93;26.52;;;;;;;4.85;100.00;101268.66;8341068;28;20521;-47
2022/12/02 06:12:33;;;;;;;72.38;27.67;;;;;;;4.82;100.00;101267.97;8347510;28;20175;-47
2022/12/02 06:16:35;;;;;;;72.70;27.70;;;;;;;4.76;100.00;101263.81;8353283;28;20033;-47
2022/12/02 06:20:35;;;;;;;86.35;29.08;;;;;;;4.81;100.00;101260.88;8354565;28;20510;-47
2022/12/02 06:24:36;;;;;;;74.32;26.90;;;;;;;4.76;100.00;101253.09;8341871;28;20415;-48
2022/12/02 06:28:38;;;;;;;78.35;27.65;;;;;;;4.79;100.00;101252.91;8345335;28;20037;-48
2022/12/02 06:32:42;;;;;;;74.90;25.80;;;;;;;4.76;100.00;101253.09;8354927;28;20041;-47
2022/12/02 06:36:42;;;;;;;79.93;27.27;;;;;;;4.79;100.00;101244.88;8353411;28;20086;-47
2022/12/02 06:40:43;;;;;;;85.32;27.85;;;;;;;4.79;100.00;101244.88;8352565;28;20041;-48
2022/12/02 06:45:15;;;;;;;76.60;26.52;;;;;;;4.75;100.00;101250.50;8334281;28;20124;-48
2022/12/02 06:49:22;;;;;;;85.35;28.58;;;;;;;4.75;100.00;101245.16;8321653;28;20033;-47
2022/12/02 06:53:41;;;;;;;78.57;27.55;;;;;;;4.77;100.00;101245.94;8321476;28;20053;-49
2022/12/02 06:57:42;;;;;;;82.65;27.98;;;;;;;4.75;100.00;101251.38;8327080;28;20486;-47
2022/12/02 07:01:43;;;;;;;89.80;29.38;;;;;;;4.73;100.00;101247.06;8354507;28;20461;-47
2022/12/02 07:05:43;;;;;;;80.20;26.95;;;;;;;4.75;100.00;101250.50;8353677;28;20406;-48
2022/12/02 07:09:46;;;;;;;86.25;28.70;;;;;;;4.78;100.00;101258.38;8351628;28;20276;-48
2022/12/02 07:13:47;;;;;;;81.32;27.13;;;;;;;4.74;100.00;101255.00;8335273;28;20104;-48
2022/12/02 07:17:48;;;;;;;83.05;27.27;;;;;;;4.66;100.00;101245.69;8344469;28;20094;-48
2022/12/02 07:21:49;;;;;;;80.43;26.83;;;;;;;4.76;100.00;101257.59;8354853;28;20041;-50
2022/12/02 07:25:53;;;;;;;83.53;26.50;;;;;;;4.79;100.00;101258.28;8352140;28;20491;-48
2022/12/02 07:29:54;;;;;;;83.97;26.60;;;;;;;4.77;100.00;101253.97;8355631;28;20181;-47
2022/12/02 07:33:55;;;;;;;88.10;27.77;;;;;;;4.81;100.00;101256.38;8364453;28;20045;-50
2022/12/02 07:37:57;;;;;;;90.68;27.70;;;;;;;4.78;100.00;101256.56;8327997;28;20061;-51
2022/12/02 07:41:57;;;;;;;84.95;27.92;;;;;;;4.87;100.00;101252.50;8327904;28;20042;-50
2022/12/02 07:45:58;;;;;;;77.85;25.13;;;;;;;4.81;100.00;101245.66;8325766;28;20096;-48
2022/12/02 07:49:59;;;;;;;91.10;27.90;;;;;;;4.83;100.00;101248.25;8326516;28;20334;-51
2022/12/02 07:53:59;;;;;;;82.78;26.20;;;;;;;4.84;100.00;101244.63;8327756;28;20060;-50
2022/12/02 07:58:00;;;;;;;85.30;25.33;;;;;;;4.82;100.00;101241.19;8335376;28;20029;-50
2022/12/02 08:02:00;;;;;;;82.25;25.00;;;;;;;4.89;100.00;101239.88;8338992;28;20037;-49
2022/12/02 08:06:01;;;;;;;91.72;26.45;;;;;;;4.85;100.00;101241.03;8356623;28;20091;-51
2022/12/02 08:10:02;;;;;;;86.00;27.50;;;;;;;4.90;100.00;101233.56;8359421;28;20044;-47
2022/12/02 08:14:03;;;;;;;83.75;26.65;;;;;;;4.90;100.00;101234.44;8359428;28;20055;-50
2022/12/02 08:18:03;;;;;;;84.75;27.17;;;;;;;4.84;100.00;101239.28;8359783;28;20041;-50
2022/12/02 08:22:04;;;;;;;87.53;29.08;;;;;;;4.84;100.00;101229.44;8359837;28;20445;-52
2022/12/02 08:26:04;;;;;;;94.57;30.05;;;;;;;4.79;100.00;101236.84;8359460;28;20049;-48
2022/12/02 08:30:08;;;;;;;89.28;27.60;;;;;;;4.68;100.00;101227.69;8331206;28;20522;-48
2022/12/02 08:34:08;;;;;;;99.60;30.13;;;;;;;4.69;100.00;101235.66;8346457;28;20033;-48
2022/12/02 08:38:09;;;;;;;95.22;29.60;;;;;;;4.72;100.00;101229.25;8347909;28;20029;-51
2022/12/02 08:42:10;;;;;;;92.32;28.75;;;;;;;4.59;100.00;101230.88;8353015;28;20420;-48
2022/12/02 08:46:11;;;;;;;92.18;28.92;;;;;;;4.54;100.00;101239.19;8358578;28;20057;-48
2022/12/02 08:50:12;;;;;;;96.00;30.15;;;;;;;4.53;100.00;101241.94;8356618;28;20037;-48
2022/12/02 08:54:14;;;;;;;100.50;28.58;;;;;;;4.46;100.00;101238.75;8358636;28;20037;-50
2022/12/02 08:58:14;;;;;;;82.88;25.85;;;;;;;4.13;100.00;101243.25;8347053;28;20038;-48
2022/12/02 09:02:15;;;;;;;90.10;28.55;;;;;;;4.15;100.00;101248.53;8328174;28;20155;-50
2022/12/02 09:06:15;;;;;;;86.28;26.73;;;;;;;4.15;100.00;101253.88;8325213;28;20092;-49
2022/12/02 09:10:16;;;;;;;91.88;27.17;;;;;;;4.23;100.00;101246.28;8324900;28;20076;-51
2022/12/02 09:14:16;;;;;;;98.70;30.02;;;;;;;4.24;100.00;101243.53;8330521;28;20041;-48
2022/12/02 09:18:17;;;;;;;89.75;30.52;;;;;;;4.24;100.00;101248.03;8351751;28;20033;-47
2022/12/02 09:22:17;;;;;;;102.90;31.27;;;;;;;4.23;100.00;101251.63;8358217;28;20041;-47
2022/12/02 09:26:18;;;;;;;96.95;29.30;;;;;;;4.29;100.00;101245.97;8357448;28;20068;-49
2022/12/02 09:30:19;;;;;;;99.50;30.73;;;;;;;4.35;100.00;101245.63;8348357;28;20048;-50
2022/12/02 09:34:19;;;;;;;90.97;26.75;;;;;;;4.31;100.00;101238.72;8346652;28;20041;-47
2022/12/02 09:38:22;;;;;;;92.38;27.70;;;;;;;4.43;100.00;101238.06;8357743;28;20498;-47
2022/12/02 09:42:23;;;;;;;94.03;27.35;;;;;;;4.39;100.00;101228.47;8356627;28;20454;-48
2022/12/02 09:46:24;;;;;;;88.45;28.35;;;;;;;4.42;100.00;101233.66;8357001;28;20040;-47
2022/12/02 09:50:25;;;;;;;96.32;28.40;;;;;;;4.42;100.00;101225.63;8355729;28;20045;-47
2022/12/02 09:54:26;;;;;;;95.63;30.00;;;;;;;4.48;100.00;101226.13;8344829;28;20044;-48
2022/12/02 09:58:27;;;;;;;98.18;29.13;;;;;;;4.54;100.00;101216.91;8357156;28;20052;-47
2022/12/02 10:02:40;;;;;;;113.90;31.58;;;;;;;4.60;100.00;101224.59;8333860;28;20042;-48
2022/12/02 10:06:42;;;;;;;112.80;30.55;;;;;;;4.64;100.00;101226.16;8331892;28;20441;-47
2022/12/02 10:10:44;;;;;;;112.60;29.83;;;;;;;4.69;100.00;101221.38;8334739;28;20048;-47
2022/12/02 10:14:49;;;;;;;99.00;29.02;;;;;;;4.74;100.00;101216.66;8347995;28;20048;-49
2022/12/02 10:18:49;;;;;;;90.03;27.77;;;;;;;4.75;100.00;101207.66;8324462;28;20037;-47
2022/12/02 10:23:12;;;;;;;87.75;26.00;;;;;;;4.83;100.00;101210.75;8335505;28;20090;-48
2022/12/02 10:27:31;;;;;;;103.75;29.70;;;;;;;4.82;100.00;101203.69;8347517;28;20084;-51
2022/12/02 10:31:32;;;;;;;93.57;27.90;;;;;;;4.83;100.00;101205.41;8337848;28;20045;-49
2022/12/02 10:35:50;;;;;;;99.47;28.48;;;;;;;4.81;100.00;101201.94;8324253;28;20041;-49
2022/12/02 10:40:15;;;;;;;87.85;27.75;;;;;;;4.89;100.00;101194.34;8327318;28;20040;-51
2022/12/02 10:44:19;;;;;;;114.93;33.00;;;;;;;4.86;100.00;101194.53;8350571;28;20055;-48
2022/12/02 10:48:19;;;;;;;103.50;30.13;;;;;;;4.90;100.00;101183.53;8354182;28;20045;-48
2022/12/02 10:52:25;;;;;;;104.82;31.85;;;;;;;4.94;100.00;101181.56;8327001;28;20041;-51
2022/12/02 10:56:25;;;;;;;107.60;31.17;;;;;;;5.01;100.00;101172.19;8342611;28;20063;-48
2022/12/02 11:00:26;;;;;;;103.70;31.67;;;;;;;4.97;100.00;101176.03;8355163;28;20045;-50
2022/12/02 11:04:28;;;;;;;105.72;30.02;;;;;;;5.01;100.00;101169.53;8354354;28;20502;-51
2022/12/02 11:08:29;;;;;;;101.90;29.77;;;;;;;5.03;100.00;101159.59;8352752;28;20584;-50
2022/12/02 11:17:07;;;;;;;99.00;30.73;;;;;;;5.06;100.00;101164.78;8320018;28;20400;-50
2022/12/02 11:34:41;;;;;;;84.60;27.92;;;;;;;5.11;100.00;101146.59;8423213;27;20768;-49
2022/12/02 11:38:47;;;;;;;82.85;27.63;;;;;;;5.13;100.00;101152.72;8389993;28;20063;-48
2022/12/02 11:42:48;;;;;;;86.75;27.20;;;;;;;5.13;100.00;101155.41;8383564;28;20048;-48
2022/12/02 11:47:02;;;;;;;82.18;28.95;;;;;;;5.11;100.00;101157.31;8383171;28;20045;-48
2022/12/02 11:51:39;;;;;;;91.68;30.13;;;;;;;5.12;100.00;101149.16;8382025;28;20421;-49
2022/12/02 11:55:43;;;;;;;82.45;30.88;;;;;;;5.11;100.00;101135.88;8382661;28;20053;-50
2022/12/02 11:59:43;;;;;;;92.75;30.58;;;;;;;5.11;100.00;101135.88;8405239;28;20064;-48
2022/12/02 12:03:47;;;;;;;84.40;29.05;;;;;;;5.08;100.00;101130.69;8416138;28;20044;-49
2022/12/02 12:07:49;;;;;;;86.93;28.27;;;;;;;5.09;100.00;101132.44;8436375;27;20508;-47
2022/12/02 12:12:13;;;;;;;78.50;29.30;;;;;;;5.12;100.00;101132.25;8478763;27;20028;-48
2022/12/02 12:16:22;;;;;;;73.93;27.47;;;;;;;5.07;100.00;101124.50;8465795;27;20040;-48
2022/12/02 12:24:35;;;;;;;71.47;28.63;;;;;;;5.09;100.00;101132.44;8426529;27;20419;-51
2022/12/02 12:28:36;;;;;;;79.75;29.60;;;;;;;5.11;100.00;101117.97;8428747;27;20049;-49
2022/12/02 12:32:37;;;;;;;70.45;28.25;;;;;;;5.08;100.00;101114.59;8399006;27;20069;-48
2022/12/02 12:36:38;;;;;;;75.10;28.52;;;;;;;5.08;100.00;101103.88;8406004;27;20040;-50
2022/12/02 12:40:38;;;;;;;68.88;27.33;;;;;;;5.14;100.00;101098.16;8416831;28;20047;-48
2022/12/02 12:44:39;;;;;;;69.00;26.35;;;;;;;5.12;100.00;101089.38;8416626;28;20052;-47
2022/12/02 12:48:39;;;;;;;68.35;27.73;;;;;;;5.14;100.00;101087.44;8415436;28;20036;-48
2022/12/02 12:52:40;;;;;;;59.25;25.23;;;;;;;5.14;100.00;101090.13;8413504;28;20036;-48
2022/12/02 12:56:40;;;;;;;61.92;25.73;;;;;;;5.17;100.00;101095.31;8413970;27;20102;-52
2022/12/02 13:00:41;;;;;;;60.55;24.50;;;;;;;5.16;100.00;101090.91;8399548;27;20055;-51
2022/12/02 13:04:41;;;;;;;51.17;23.98;;;;;;;5.13;100.00;101096.44;8391208;27;20076;-48
2022/12/02 13:08:42;;;;;;;61.42;24.30;;;;;;;5.17;100.00;101087.25;8378763;27;20115;-49
2022/12/02 13:12:42;;;;;;;60.67;28.40;;;;;;;5.15;100.00;101089.16;8382554;27;20116;-51
2022/12/02 13:16:43;;;;;;;58.90;25.95;;;;;;;5.14;100.00;101084.75;8406532;27;20039;-48
2022/12/02 13:20:43;;;;;;;56.92;26.05;;;;;;;5.14;100.00;101080.28;8384812;27;20095;-48
2022/12/02 13:24:44;;;;;;;54.55;25.70;;;;;;;5.09;100.00;101078.84;8393659;27;20394;-48
2022/12/02 13:28:44;;;;;;;53.65;24.98;;;;;;;5.15;100.00;101073.09;8372514;27;20065;-48
2022/12/02 13:32:46;;;;;;;57.88;26.02;;;;;;;5.12;100.00;101078.66;8352046;28;20121;-51
2022/12/02 13:36:47;;;;;;;58.20;25.40;;;;;;;5.10;100.00;101080.56;8369554;28;20029;-48
2022/12/02 13:40:47;;;;;;;54.92;24.52;;;;;;;5.07;100.00;101078.06;8373047;28;20128;-48
2022/12/02 13:44:48;;;;;;;57.35;25.75;;;;;;;5.07;100.00;101080.75;8372583;28;20055;-48
2022/12/02 13:48:48;;;;;;;57.88;24.85;;;;;;;5.09;100.00;101078.84;8371553;28;20111;-51
2022/12/02 13:52:50;;;;;;;56.13;25.85;;;;;;;5.07;100.00;101076.25;8394745;28;20063;-50
2022/12/02 13:56:50;;;;;;;54.03;25.20;;;;;;;5.07;100.00;101078.06;8360882;28;20517;-49
2022/12/02 14:00:51;;;;;;;56.28;26.00;;;;;;;5.07;100.00;101072.69;8348794;28;20146;-48
2022/12/02 14:04:51;;;;;;;60.10;25.77;;;;;;;5.07;100.00;101086.09;8349397;28;20048;-49
2022/12/02 14:08:52;;;;;;;53.33;24.00;;;;;;;5.07;100.00;101080.75;8361298;28;20079;-49
2022/12/02 14:12:53;;;;;;;53.15;24.58;;;;;;;5.07;100.00;101080.75;8365938;28;20045;-49
2022/12/02 14:16:53;;;;;;;50.85;23.90;;;;;;;5.06;100.00;101081.69;8357474;28;20041;-48
2022/12/02 14:20:54;;;;;;;49.00;22.13;;;;;;;5.06;100.00;101087.06;8360275;28;20045;-50
2022/12/02 14:24:55;;;;;;;56.17;24.67;;;;;;;5.01;100.00;101097.19;8367456;28;20432;-51
2022/12/02 14:28:55;;;;;;;62.97;24.48;;;;;;;4.98;100.00;101092.88;8363832;28;20032;-51
2022/12/02 14:32:56;;;;;;;49.95;24.02;;;;;;;4.99;100.00;101099.06;8374130;28;20072;-49
2022/12/02 14:36:56;;;;;;;55.97;24.38;;;;;;;4.96;100.00;101101.94;8360080;28;20048;-48
2022/12/02 14:40:57;;;;;;;56.63;23.88;;;;;;;4.98;100.00;101100.03;8372347;28;20048;-49
2022/12/02 14:44:58;;;;;;;56.40;25.08;;;;;;;4.97;100.00;101096.50;8380633;28;20600;-52
2022/12/02 14:48:58;;;;;;;55.13;24.60;;;;;;;4.98;98.98;101100.03;8408672;28;20405;-50
2022/12/02 14:52:59;;;;;;;53.83;24.55;;;;;;;4.99;99.62;101105.31;8386497;28;20037;-50
2022/12/02 14:56:59;;;;;;;51.88;24.35;;;;;;;4.98;99.58;101097.38;8370909;28;20099;-48
2022/12/02 15:01:00;;;;;;;52.60;23.00;;;;;;;5.02;99.73;101104.25;8370890;28;20124;-51
2022/12/02 15:05:00;;;;;;;56.72;25.02;;;;;;;4.98;98.71;101103.59;8367583;28;20136;-49
2022/12/02 15:09:01;;;;;;;55.30;24.90;;;;;;;4.98;97.12;101105.41;8360290;28;20138;-48
2022/12/02 15:13:02;;;;;;;54.40;24.27;;;;;;;5.01;96.66;101108.78;8345528;28;20048;-49
2022/12/02 15:17:02;;;;;;;53.90;24.52;;;;;;;5.00;96.44;101101.66;8362191;28;20047;-49
2022/12/02 15:21:03;;;;;;;50.33;23.08;;;;;;;4.99;96.35;101109.78;8355907;28;20090;-48
2022/12/02 15:25:04;;;;;;;58.22;26.00;;;;;;;4.96;97.10;101104.63;8364805;28;20167;-49
2022/12/02 15:29:04;;;;;;;62.50;25.85;;;;;;;4.90;96.94;101111.22;8367896;28;20105;-49
2022/12/02 15:33:05;;;;;;;58.85;26.75;;;;;;;4.89;96.39;101113.97;8367704;28;20123;-49
2022/12/02 15:37:05;;;;;;;61.05;25.92;;;;;;;4.88;95.83;101106.91;8358763;28;20569;-48
2022/12/02 15:41:07;;;;;;;58.92;25.20;;;;;;;4.87;96.46;101121.22;8362743;28;20079;-48
2022/12/02 15:45:07;;;;;;;59.72;26.30;;;;;;;4.87;95.50;101115.88;8362050;28;20546;-51
2022/12/02 15:49:08;;;;;;;51.72;24.38;;;;;;;4.85;95.94;101128.50;8357416;28;20520;-49
2022/12/02 15:53:08;;;;;;;57.30;25.63;;;;;;;4.83;95.31;101119.69;8346305;28;20037;-48
2022/12/02 15:57:09;;;;;;;53.90;24.50;;;;;;;4.81;96.28;101121.59;8346376;28;20106;-48
2022/12/02 16:01:10;;;;;;;54.40;24.38;;;;;;;4.79;95.70;101113.66;8353477;28;20091;-48
2022/12/02 16:05:10;;;;;;;54.75;25.20;;;;;;;4.81;95.05;101121.59;8357381;28;20476;-48
2022/12/02 16:09:11;;;;;;;56.35;25.33;;;;;;;4.78;95.46;101130.69;8363097;28;20033;-48
2022/12/02 16:13:11;;;;;;;51.13;23.23;;;;;;;4.78;95.42;101128.00;8367016;28;20460;-49
2022/12/02 16:17:12;;;;;;;52.65;23.40;;;;;;;4.73;95.70;101126.56;8366889;28;20045;-47
2022/12/02 16:21:13;;;;;;;53.75;23.58;;;;;;;4.70;96.46;101129.41;8367713;28;20440;-47
2022/12/02 16:25:14;;;;;;;48.97;22.88;;;;;;;4.65;96.95;101132.34;8367802;28;20041;-48
2022/12/02 16:29:15;;;;;;;53.22;22.83;;;;;;;4.60;97.64;101144.28;8371117;28;20086;-52
2022/12/02 16:33:15;;;;;;;52.13;23.95;;;;;;;4.54;98.68;101136.59;8369959;28;20044;-48
2022/12/02 16:37:19;;;;;;;49.80;23.25;;;;;;;4.51;98.68;101128.75;8351075;28;20041;-49
2022/12/02 16:41:19;;;;;;;51.78;22.92;;;;;;;4.49;99.16;101136.84;8356501;28;20510;-48
2022/12/02 16:45:19;;;;;;;54.10;23.27;;;;;;;4.49;99.58;101136.00;8365726;28;20475;-48
2022/12/02 16:49:20;;;;;;;44.15;21.98;;;;;;;4.50;99.08;101135.03;8368550;28;20051;-49
2022/12/02 16:53:20;;;;;;;50.00;22.25;;;;;;;4.51;98.65;101131.41;8356531;28;20040;-48
2022/12/02 16:57:21;;;;;;;39.55;20.23;;;;;;;4.52;99.12;101134.00;8349349;28;20029;-48
2022/12/02 17:01:22;;;;;;;41.72;20.45;;;;;;;4.51;98.87;101131.41;8365160;28;20060;-51
2022/12/02 17:05:22;;;;;;;42.60;20.23;;;;;;;4.51;98.96;101134.94;8365450;28;20130;-52
2022/12/02 17:09:23;;;;;;;40.80;18.85;;;;;;;4.52;96.91;101147.41;8375496;28;20086;-48
2022/12/02 17:13:23;;;;;;;45.92;20.13;;;;;;;4.54;98.51;101141.94;8370299;28;20040;-48
2022/12/02 17:17:24;;;;;;;40.65;18.92;;;;;;;4.57;97.03;101147.13;8371798;28;20055;-48
2022/12/02 17:21:24;;;;;;;38.42;17.65;;;;;;;4.57;96.39;101149.81;8365150;28;20120;-49
2022/12/02 17:25:25;;;;;;;31.45;15.70;;;;;;;4.59;96.39;101148.75;8364634;28;20039;-52
2022/12/02 17:29:25;;;;;;;29.52;14.85;;;;;;;4.59;93.20;101147.88;8363006;28;20395;-50
2022/12/02 17:33:25;;;;;;;26.55;13.77;;;;;;;4.68;92.17;101152.72;8366267;28;20029;-49
2022/12/02 17:37:26;;;;;;;25.70;14.05;;;;;;;4.70;90.38;101150.81;8352162;28;20052;-48
2022/12/02 17:41:29;;;;;;;23.40;13.30;;;;;;;4.70;89.64;101159.69;8353342;28;20041;-52
2022/12/02 17:45:29;;;;;;;20.73;12.35;;;;;;;4.68;90.24;101166.09;8372822;28;20052;-49
2022/12/02 17:49:30;;;;;;;20.80;12.02;;;;;;;4.69;89.31;101159.78;8360560;28;20041;-50
2022/12/02 17:53:30;;;;;;;23.00;12.82;;;;;;;4.66;90.40;101165.34;8351275;28;20213;-49
2022/12/02 17:57:31;;;;;;;23.38;12.43;;;;;;;4.65;89.90;101163.59;8361972;28;20041;-49
2022/12/02 18:01:31;;;;;;;22.23;12.10;;;;;;;4.61;90.46;101167.41;8370001;28;20071;-48
2022/12/02 18:05:32;;;;;;;23.80;12.88;;;;;;;4.60;90.59;101171.06;8374241;28;20047;-48
2022/12/02 18:09:32;;;;;;;24.20;13.55;;;;;;;4.61;90.44;101178.13;8358769;28;20034;-48
2022/12/02 18:13:33;;;;;;;27.73;12.85;;;;;;;4.59;90.98;101169.31;8348312;28;20033;-49
2022/12/02 18:17:33;;;;;;;23.55;12.73;;;;;;;4.57;90.22;101179.25;8352233;28;20032;-48
2022/12/02 18:21:34;;;;;;;27.60;14.00;;;;;;;4.57;90.89;101176.59;8360867;28;20040;-48
2022/12/02 18:25:34;;;;;;;28.50;15.27;;;;;;;4.55;91.73;101173.13;8363644;28;20048;-48
2022/12/02 18:29:35;;;;;;;28.48;14.43;;;;;;;4.52;91.96;101175.97;8360529;28;20478;-48
2022/12/02 18:33:35;;;;;;;31.90;14.90;;;;;;;4.49;92.40;101178.81;8365322;28;20427;-49
2022/12/02 18:37:36;;;;;;;30.10;15.55;;;;;;;4.50;93.80;101175.19;8357568;28;20025;-49
2022/12/02 18:41:36;;;;;;;33.20;15.57;;;;;;;4.48;93.77;101166.41;8360334;28;20452;-51
2022/12/02 18:45:37;;;;;;;32.45;16.15;;;;;;;4.41;94.52;101162.31;8363686;28;20044;-48